sensor_id;sensor_type;location;lat;lon;timestamp;temperature;humidity
75500;DHT22;64076;51.466;7.260;2023-11-19T00:02:11;22.60;40.10
75500;DHT22;64076;51.466;7.260;2023-11-19T00:04:38;22.60;40.10
75500;DHT22;64076;51.466;7.260;2023-11-19T00:07:05;22.60;40.10
75500;DHT22;64076;51.466;7.260;2023-11-19T00:09:32;22.60;40.10
75500;DHT22;64076;51.466;7.260;2023-11-19T00:11:58;22.60;40.10
75500;DHT22;64076;51.466;7.260;2023-11-19T00:14:25;22.60;40.10
75500;DHT22;64076;51.466;7.260;2023-11-19T00:16:51;22.60;40.10
75500;DHT22;64076;51.466;7.260;2023-11-19T00:19:17;22.60;40.10
75500;DHT22;64076;51.466;7.260;2023-11-19T00:21:42;22.60;40.20
75500;DHT22;64076;51.466;7.260;2023-11-19T00:24:08;22.60;40.20
75500;DHT22;64076;51.466;7.260;2023-11-19T00:26:34;22.60;40.20
75500;DHT22;64076;51.466;7.260;2023-11-19T00:29:00;22.60;40.20
75500;DHT22;64076;51.466;7.260;2023-11-19T00:31:25;22.60;40.20
75500;DHT22;64076;51.466;7.260;2023-11-19T00:33:54;22.60;40.30
75500;DHT22;64076;51.466;7.260;2023-11-19T00:36:19;22.60;40.30
75500;DHT22;64076;51.466;7.260;2023-11-19T00:38:45;22.60;40.20
75500;DHT22;64076;51.466;7.260;2023-11-19T00:41:11;22.60;40.30
75500;DHT22;64076;51.466;7.260;2023-11-19T00:43:37;22.60;40.20
75500;DHT22;64076;51.466;7.260;2023-11-19T00:46:02;22.70;40.30
75500;DHT22;64076;51.466;7.260;2023-11-19T00:48:28;22.70;40.30
75500;DHT22;64076;51.466;7.260;2023-11-19T00:50:54;22.70;40.30
75500;DHT22;64076;51.466;7.260;2023-11-19T00:53:19;22.70;40.30
75500;DHT22;64076;51.466;7.260;2023-11-19T00:55:45;22.70;40.30
75500;DHT22;64076;51.466;7.260;2023-11-19T00:58:10;22.70;40.30
75500;DHT22;64076;51.466;7.260;2023-11-19T01:00:36;22.70;40.30
75500;DHT22;64076;51.466;7.260;2023-11-19T01:03:01;22.70;40.40
75500;DHT22;64076;51.466;7.260;2023-11-19T01:05:27;22.70;40.40
75500;DHT22;64076;51.466;7.260;2023-11-19T01:07:54;22.70;40.40
75500;DHT22;64076;51.466;7.260;2023-11-19T01:10:19;22.70;40.40
75500;DHT22;64076;51.466;7.260;2023-11-19T01:12:45;22.60;40.40
75500;DHT22;64076;51.466;7.260;2023-11-19T01:15:11;22.70;40.40
75500;DHT22;64076;51.466;7.260;2023-11-19T01:17:38;22.70;40.50
75500;DHT22;64076;51.466;7.260;2023-11-19T01:20:04;22.70;40.50
75500;DHT22;64076;51.466;7.260;2023-11-19T01:22:32;22.70;40.40
75500;DHT22;64076;51.466;7.260;2023-11-19T01:24:57;22.70;40.50
75500;DHT22;64076;51.466;7.260;2023-11-19T01:27:24;22.70;40.50
75500;DHT22;64076;51.466;7.260;2023-11-19T01:29:49;22.70;40.50
75500;DHT22;64076;51.466;7.260;2023-11-19T01:32:15;22.70;40.50
75500;DHT22;64076;51.466;7.260;2023-11-19T01:34:41;22.70;40.60
75500;DHT22;64076;51.466;7.260;2023-11-19T01:37:06;22.70;40.50
75500;DHT22;64076;51.466;7.260;2023-11-19T01:39:34;22.70;40.50
75500;DHT22;64076;51.466;7.260;2023-11-19T01:42:00;22.70;40.60
75500;DHT22;64076;51.466;7.260;2023-11-19T01:44:26;22.70;40.50
75500;DHT22;64076;51.466;7.260;2023-11-19T01:46:52;22.70;40.50
75500;DHT22;64076;51.466;7.260;2023-11-19T01:49:18;22.70;40.50
75500;DHT22;64076;51.466;7.260;2023-11-19T01:51:45;22.70;40.50
75500;DHT22;64076;51.466;7.260;2023-11-19T01:54:12;22.70;40.60
75500;DHT22;64076;51.466;7.260;2023-11-19T01:56:39;22.70;40.60
75500;DHT22;64076;51.466;7.260;2023-11-19T01:59:09;22.70;40.60
75500;DHT22;64076;51.466;7.260;2023-11-19T02:01:37;22.70;40.60
75500;DHT22;64076;51.466;7.260;2023-11-19T02:04:05;22.70;40.60
75500;DHT22;64076;51.466;7.260;2023-11-19T02:06:33;22.70;40.60
75500;DHT22;64076;51.466;7.260;2023-11-19T02:08:59;22.70;40.50
75500;DHT22;64076;51.466;7.260;2023-11-19T02:11:26;22.70;40.60
75500;DHT22;64076;51.466;7.260;2023-11-19T02:13:55;22.70;40.60
75500;DHT22;64076;51.466;7.260;2023-11-19T02:16:21;22.70;40.60
75500;DHT22;64076;51.466;7.260;2023-11-19T02:18:47;22.70;40.60
75500;DHT22;64076;51.466;7.260;2023-11-19T02:21:14;22.70;40.60
75500;DHT22;64076;51.466;7.260;2023-11-19T02:23:40;22.70;40.60
75500;DHT22;64076;51.466;7.260;2023-11-19T02:26:26;22.70;40.70
75500;DHT22;64076;51.466;7.260;2023-11-19T02:28:54;22.70;40.70
75500;DHT22;64076;51.466;7.260;2023-11-19T02:31:19;22.70;40.60
75500;DHT22;64076;51.466;7.260;2023-11-19T02:33:45;22.70;40.70
75500;DHT22;64076;51.466;7.260;2023-11-19T02:36:11;22.70;40.70
75500;DHT22;64076;51.466;7.260;2023-11-19T02:38:37;22.70;40.70
75500;DHT22;64076;51.466;7.260;2023-11-19T02:41:06;22.70;40.70
75500;DHT22;64076;51.466;7.260;2023-11-19T02:43:35;22.70;40.70
75500;DHT22;64076;51.466;7.260;2023-11-19T02:46:04;22.70;40.80
75500;DHT22;64076;51.466;7.260;2023-11-19T02:48:35;22.70;40.80
75500;DHT22;64076;51.466;7.260;2023-11-19T02:51:04;22.70;40.70
75500;DHT22;64076;51.466;7.260;2023-11-19T02:53:31;22.70;40.80
75500;DHT22;64076;51.466;7.260;2023-11-19T02:55:57;22.70;40.80
75500;DHT22;64076;51.466;7.260;2023-11-19T02:58:37;22.70;40.80
75500;DHT22;64076;51.466;7.260;2023-11-19T03:01:04;22.70;40.80
75500;DHT22;64076;51.466;7.260;2023-11-19T03:03:38;22.70;40.80
75500;DHT22;64076;51.466;7.260;2023-11-19T03:06:06;22.70;40.80
75500;DHT22;64076;51.466;7.260;2023-11-19T03:08:35;22.70;40.80
75500;DHT22;64076;51.466;7.260;2023-11-19T03:11:01;22.70;40.90
75500;DHT22;64076;51.466;7.260;2023-11-19T03:13:27;22.70;40.90
75500;DHT22;64076;51.466;7.260;2023-11-19T03:15:52;22.70;40.90
75500;DHT22;64076;51.466;7.260;2023-11-19T03:18:19;22.70;40.90
75500;DHT22;64076;51.466;7.260;2023-11-19T03:20:46;22.70;40.90
75500;DHT22;64076;51.466;7.260;2023-11-19T03:23:12;22.70;40.80
75500;DHT22;64076;51.466;7.260;2023-11-19T03:25:37;22.70;40.90
75500;DHT22;64076;51.466;7.260;2023-11-19T03:28:03;22.80;40.90
75500;DHT22;64076;51.466;7.260;2023-11-19T03:30:30;22.80;40.80
75500;DHT22;64076;51.466;7.260;2023-11-19T03:32:56;22.70;40.90
75500;DHT22;64076;51.466;7.260;2023-11-19T03:35:23;22.70;40.90
75500;DHT22;64076;51.466;7.260;2023-11-19T03:37:49;22.80;40.90
75500;DHT22;64076;51.466;7.260;2023-11-19T03:40:14;22.80;40.90
75500;DHT22;64076;51.466;7.260;2023-11-19T03:42:40;22.80;40.90
75500;DHT22;64076;51.466;7.260;2023-11-19T03:45:09;22.80;40.90
75500;DHT22;64076;51.466;7.260;2023-11-19T03:47:35;22.80;41.00
75500;DHT22;64076;51.466;7.260;2023-11-19T03:50:01;22.80;40.90
75500;DHT22;64076;51.466;7.260;2023-11-19T03:52:26;22.80;40.90
75500;DHT22;64076;51.466;7.260;2023-11-19T03:54:55;22.80;40.90
75500;DHT22;64076;51.466;7.260;2023-11-19T03:57:22;22.80;40.90
75500;DHT22;64076;51.466;7.260;2023-11-19T03:59:48;22.80;41.00
75500;DHT22;64076;51.466;7.260;2023-11-19T04:02:13;22.70;41.00
75500;DHT22;64076;51.466;7.260;2023-11-19T04:04:39;22.80;41.00
75500;DHT22;64076;51.466;7.260;2023-11-19T04:07:05;22.80;41.00
75500;DHT22;64076;51.466;7.260;2023-11-19T04:09:31;22.80;41.00
75500;DHT22;64076;51.466;7.260;2023-11-19T04:12:01;22.80;41.00
75500;DHT22;64076;51.466;7.260;2023-11-19T04:14:26;22.80;41.00
75500;DHT22;64076;51.466;7.260;2023-11-19T04:16:52;22.80;40.90
75500;DHT22;64076;51.466;7.260;2023-11-19T04:19:19;22.80;40.90
75500;DHT22;64076;51.466;7.260;2023-11-19T04:21:45;22.80;40.90
75500;DHT22;64076;51.466;7.260;2023-11-19T04:24:10;22.80;40.90
75500;DHT22;64076;51.466;7.260;2023-11-19T04:26:46;22.80;40.90
75500;DHT22;64076;51.466;7.260;2023-11-19T04:29:12;22.80;40.90
75500;DHT22;64076;51.466;7.260;2023-11-19T04:31:38;22.80;40.90
75500;DHT22;64076;51.466;7.260;2023-11-19T04:34:05;22.80;40.90
75500;DHT22;64076;51.466;7.260;2023-11-19T04:36:32;22.80;40.90
75500;DHT22;64076;51.466;7.260;2023-11-19T04:38:58;22.80;41.00
75500;DHT22;64076;51.466;7.260;2023-11-19T04:41:25;22.80;40.90
75500;DHT22;64076;51.466;7.260;2023-11-19T04:43:50;22.80;40.90
75500;DHT22;64076;51.466;7.260;2023-11-19T04:46:16;22.80;40.90
75500;DHT22;64076;51.466;7.260;2023-11-19T04:48:41;22.80;40.90
75500;DHT22;64076;51.466;7.260;2023-11-19T04:51:07;22.80;40.90
75500;DHT22;64076;51.466;7.260;2023-11-19T04:53:34;22.80;40.90
75500;DHT22;64076;51.466;7.260;2023-11-19T04:56:00;22.80;41.00
75500;DHT22;64076;51.466;7.260;2023-11-19T04:58:26;22.80;40.90
75500;DHT22;64076;51.466;7.260;2023-11-19T05:00:54;22.80;41.00
75500;DHT22;64076;51.466;7.260;2023-11-19T05:03:19;22.80;40.90
75500;DHT22;64076;51.466;7.260;2023-11-19T05:05:45;22.80;41.00
75500;DHT22;64076;51.466;7.260;2023-11-19T05:08:10;22.80;41.00
75500;DHT22;64076;51.466;7.260;2023-11-19T05:10:37;22.80;41.00
75500;DHT22;64076;51.466;7.260;2023-11-19T05:13:02;22.80;41.00
75500;DHT22;64076;51.466;7.260;2023-11-19T05:15:28;22.80;41.00
75500;DHT22;64076;51.466;7.260;2023-11-19T05:17:53;22.80;41.00
75500;DHT22;64076;51.466;7.260;2023-11-19T05:20:19;22.80;41.00
75500;DHT22;64076;51.466;7.260;2023-11-19T05:22:44;22.80;41.00
75500;DHT22;64076;51.466;7.260;2023-11-19T05:25:11;22.80;41.00
75500;DHT22;64076;51.466;7.260;2023-11-19T05:27:37;22.80;41.00
75500;DHT22;64076;51.466;7.260;2023-11-19T05:30:04;22.80;40.90
75500;DHT22;64076;51.466;7.260;2023-11-19T05:32:32;22.80;41.00
75500;DHT22;64076;51.466;7.260;2023-11-19T05:34:58;22.80;41.00
75500;DHT22;64076;51.466;7.260;2023-11-19T05:37:24;22.80;41.00
75500;DHT22;64076;51.466;7.260;2023-11-19T05:39:50;22.80;41.00
75500;DHT22;64076;51.466;7.260;2023-11-19T05:42:16;22.80;41.00
75500;DHT22;64076;51.466;7.260;2023-11-19T05:44:41;22.80;41.00
75500;DHT22;64076;51.466;7.260;2023-11-19T05:47:07;22.80;41.00
75500;DHT22;64076;51.466;7.260;2023-11-19T05:49:32;22.80;41.00
75500;DHT22;64076;51.466;7.260;2023-11-19T05:51:58;22.80;41.00
75500;DHT22;64076;51.466;7.260;2023-11-19T05:54:24;22.80;41.00
75500;DHT22;64076;51.466;7.260;2023-11-19T05:56:50;22.80;41.00
75500;DHT22;64076;51.466;7.260;2023-11-19T05:59:19;22.80;41.00
75500;DHT22;64076;51.466;7.260;2023-11-19T06:01:45;22.80;41.00
75500;DHT22;64076;51.466;7.260;2023-11-19T06:04:10;22.80;41.00
75500;DHT22;64076;51.466;7.260;2023-11-19T06:06:36;22.80;41.00
75500;DHT22;64076;51.466;7.260;2023-11-19T06:09:03;22.80;41.00
75500;DHT22;64076;51.466;7.260;2023-11-19T06:11:29;22.80;41.00
75500;DHT22;64076;51.466;7.260;2023-11-19T06:13:54;22.80;41.00
75500;DHT22;64076;51.466;7.260;2023-11-19T06:16:20;22.80;41.00
75500;DHT22;64076;51.466;7.260;2023-11-19T06:18:45;22.80;41.00
75500;DHT22;64076;51.466;7.260;2023-11-19T06:21:12;22.80;41.00
75500;DHT22;64076;51.466;7.260;2023-11-19T06:23:37;22.80;41.00
75500;DHT22;64076;51.466;7.260;2023-11-19T06:26:03;22.80;41.00
75500;DHT22;64076;51.466;7.260;2023-11-19T06:28:30;22.80;41.00
75500;DHT22;64076;51.466;7.260;2023-11-19T06:30:56;22.80;41.00
75500;DHT22;64076;51.466;7.260;2023-11-19T06:33:26;22.80;41.00
75500;DHT22;64076;51.466;7.260;2023-11-19T06:35:52;22.80;41.00
75500;DHT22;64076;51.466;7.260;2023-11-19T06:38:19;22.80;41.00
75500;DHT22;64076;51.466;7.260;2023-11-19T06:40:45;22.80;41.00
75500;DHT22;64076;51.466;7.260;2023-11-19T06:43:11;22.80;41.00
75500;DHT22;64076;51.466;7.260;2023-11-19T06:45:36;22.80;41.00
75500;DHT22;64076;51.466;7.260;2023-11-19T06:48:05;22.80;41.10
75500;DHT22;64076;51.466;7.260;2023-11-19T06:50:31;22.80;41.10
75500;DHT22;64076;51.466;7.260;2023-11-19T06:52:57;22.80;41.00
75500;DHT22;64076;51.466;7.260;2023-11-19T06:55:22;22.80;41.00
75500;DHT22;64076;51.466;7.260;2023-11-19T06:57:48;22.80;41.10
75500;DHT22;64076;51.466;7.260;2023-11-19T07:00:14;22.80;41.00
75500;DHT22;64076;51.466;7.260;2023-11-19T07:02:39;22.80;41.10
75500;DHT22;64076;51.466;7.260;2023-11-19T07:05:05;22.80;41.00
75500;DHT22;64076;51.466;7.260;2023-11-19T07:07:32;22.80;41.00
75500;DHT22;64076;51.466;7.260;2023-11-19T07:10:01;22.80;41.10
75500;DHT22;64076;51.466;7.260;2023-11-19T07:12:27;22.80;41.00
75500;DHT22;64076;51.466;7.260;2023-11-19T07:14:53;22.80;41.00
75500;DHT22;64076;51.466;7.260;2023-11-19T07:17:20;22.80;41.10
75500;DHT22;64076;51.466;7.260;2023-11-19T07:19:47;22.80;41.00
75500;DHT22;64076;51.466;7.260;2023-11-19T07:22:15;22.80;41.00
75500;DHT22;64076;51.466;7.260;2023-11-19T07:24:41;22.80;41.00
75500;DHT22;64076;51.466;7.260;2023-11-19T07:27:07;22.80;41.00
75500;DHT22;64076;51.466;7.260;2023-11-19T07:29:34;22.80;41.00
75500;DHT22;64076;51.466;7.260;2023-11-19T07:31:59;22.80;40.90
75500;DHT22;64076;51.466;7.260;2023-11-19T07:34:27;22.80;41.00
75500;DHT22;64076;51.466;7.260;2023-11-19T07:36:53;22.80;40.90
75500;DHT22;64076;51.466;7.260;2023-11-19T07:39:18;22.80;40.90
75500;DHT22;64076;51.466;7.260;2023-11-19T07:41:45;22.80;40.90
75500;DHT22;64076;51.466;7.260;2023-11-19T07:44:11;22.80;40.90
75500;DHT22;64076;51.466;7.260;2023-11-19T07:46:37;22.80;40.90
75500;DHT22;64076;51.466;7.260;2023-11-19T07:49:03;22.90;40.90
75500;DHT22;64076;51.466;7.260;2023-11-19T07:51:28;22.90;40.90
75500;DHT22;64076;51.466;7.260;2023-11-19T07:53:54;22.90;40.80
75500;DHT22;64076;51.466;7.260;2023-11-19T07:56:19;22.90;40.90
75500;DHT22;64076;51.466;7.260;2023-11-19T07:58:45;22.90;40.90
75500;DHT22;64076;51.466;7.260;2023-11-19T08:01:10;22.90;40.80
75500;DHT22;64076;51.466;7.260;2023-11-19T08:03:36;22.90;40.80
75500;DHT22;64076;51.466;7.260;2023-11-19T08:06:03;22.90;40.80
75500;DHT22;64076;51.466;7.260;2023-11-19T08:08:29;22.90;40.80
75500;DHT22;64076;51.466;7.260;2023-11-19T08:10:56;22.90;40.80
75500;DHT22;64076;51.466;7.260;2023-11-19T08:13:23;22.90;40.80
75500;DHT22;64076;51.466;7.260;2023-11-19T08:15:49;23.00;40.70
75500;DHT22;64076;51.466;7.260;2023-11-19T08:18:14;23.00;40.70
75500;DHT22;64076;51.466;7.260;2023-11-19T08:20:40;23.00;40.70
75500;DHT22;64076;51.466;7.260;2023-11-19T08:23:06;23.00;40.70
75500;DHT22;64076;51.466;7.260;2023-11-19T08:25:33;23.00;40.70
75500;DHT22;64076;51.466;7.260;2023-11-19T08:27:59;23.00;40.70
75500;DHT22;64076;51.466;7.260;2023-11-19T08:30:25;23.00;40.70
75500;DHT22;64076;51.466;7.260;2023-11-19T08:32:51;23.00;40.70
75500;DHT22;64076;51.466;7.260;2023-11-19T08:35:16;23.00;40.70
75500;DHT22;64076;51.466;7.260;2023-11-19T08:37:42;23.00;40.70
75500;DHT22;64076;51.466;7.260;2023-11-19T08:40:08;23.00;40.70
75500;DHT22;64076;51.466;7.260;2023-11-19T08:42:33;23.00;40.70
75500;DHT22;64076;51.466;7.260;2023-11-19T08:44:59;23.00;40.70
75500;DHT22;64076;51.466;7.260;2023-11-19T08:47:24;23.00;40.70
75500;DHT22;64076;51.466;7.260;2023-11-19T08:49:53;23.00;40.60
75500;DHT22;64076;51.466;7.260;2023-11-19T08:52:19;23.00;40.70
75500;DHT22;64076;51.466;7.260;2023-11-19T08:54:44;23.00;40.60
75500;DHT22;64076;51.466;7.260;2023-11-19T08:57:10;23.00;40.60
75500;DHT22;64076;51.466;7.260;2023-11-19T08:59:35;23.00;40.60
75500;DHT22;64076;51.466;7.260;2023-11-19T09:02:03;23.00;40.60
75500;DHT22;64076;51.466;7.260;2023-11-19T09:04:29;23.00;40.60
75500;DHT22;64076;51.466;7.260;2023-11-19T09:06:54;23.00;40.60
75500;DHT22;64076;51.466;7.260;2023-11-19T09:09:21;23.00;40.60
75500;DHT22;64076;51.466;7.260;2023-11-19T09:11:46;23.00;40.60
75500;DHT22;64076;51.466;7.260;2023-11-19T09:14:12;23.00;40.60
75500;DHT22;64076;51.466;7.260;2023-11-19T09:16:37;23.10;40.50
75500;DHT22;64076;51.466;7.260;2023-11-19T09:19:03;23.00;40.60
75500;DHT22;64076;51.466;7.260;2023-11-19T09:21:29;23.00;40.60
75500;DHT22;64076;51.466;7.260;2023-11-19T09:23:59;23.00;40.60
75500;DHT22;64076;51.466;7.260;2023-11-19T09:26:27;23.00;40.60
75500;DHT22;64076;51.466;7.260;2023-11-19T09:28:53;23.00;40.60
75500;DHT22;64076;51.466;7.260;2023-11-19T09:31:18;23.10;40.60
75500;DHT22;64076;51.466;7.260;2023-11-19T09:33:44;23.00;40.50
75500;DHT22;64076;51.466;7.260;2023-11-19T09:36:13;23.00;40.60
75500;DHT22;64076;51.466;7.260;2023-11-19T09:38:43;23.00;40.60
75500;DHT22;64076;51.466;7.260;2023-11-19T09:41:09;23.00;40.50
75500;DHT22;64076;51.466;7.260;2023-11-19T09:43:38;23.00;40.60
75500;DHT22;64076;51.466;7.260;2023-11-19T09:46:05;23.00;40.50
75500;DHT22;64076;51.466;7.260;2023-11-19T09:48:33;23.00;40.60
75500;DHT22;64076;51.466;7.260;2023-11-19T09:51:00;23.00;40.50
75500;DHT22;64076;51.466;7.260;2023-11-19T09:53:26;23.00;40.50
75500;DHT22;64076;51.466;7.260;2023-11-19T09:55:53;23.00;40.60
75500;DHT22;64076;51.466;7.260;2023-11-19T09:58:18;23.00;40.60
75500;DHT22;64076;51.466;7.260;2023-11-19T10:00:44;23.00;40.50
75500;DHT22;64076;51.466;7.260;2023-11-19T10:03:11;23.10;40.50
75500;DHT22;64076;51.466;7.260;2023-11-19T10:05:38;23.00;40.50
75500;DHT22;64076;51.466;7.260;2023-11-19T10:08:04;23.10;40.50
75500;DHT22;64076;51.466;7.260;2023-11-19T10:10:30;23.10;40.40
75500;DHT22;64076;51.466;7.260;2023-11-19T10:12:56;23.10;40.40
75500;DHT22;64076;51.466;7.260;2023-11-19T10:15:23;23.10;40.50
75500;DHT22;64076;51.466;7.260;2023-11-19T10:17:50;23.10;40.50
75500;DHT22;64076;51.466;7.260;2023-11-19T10:20:16;23.10;40.50
75500;DHT22;64076;51.466;7.260;2023-11-19T10:22:41;23.10;40.50
75500;DHT22;64076;51.466;7.260;2023-11-19T10:25:28;23.10;40.40
75500;DHT22;64076;51.466;7.260;2023-11-19T10:27:54;23.10;40.40
75500;DHT22;64076;51.466;7.260;2023-11-19T10:30:25;23.10;40.50
75500;DHT22;64076;51.466;7.260;2023-11-19T10:33:12;23.10;40.50
75500;DHT22;64076;51.466;7.260;2023-11-19T10:35:53;23.10;40.40
75500;DHT22;64076;51.466;7.260;2023-11-19T10:38:19;23.10;40.40
75500;DHT22;64076;51.466;7.260;2023-11-19T10:40:46;23.10;40.40
75500;DHT22;64076;51.466;7.260;2023-11-19T10:43:12;23.10;40.40
75500;DHT22;64076;51.466;7.260;2023-11-19T10:45:38;23.10;40.40
75500;DHT22;64076;51.466;7.260;2023-11-19T10:48:05;23.10;40.40
75500;DHT22;64076;51.466;7.260;2023-11-19T10:50:37;23.10;40.40
75500;DHT22;64076;51.466;7.260;2023-11-19T10:53:03;23.10;40.40
75500;DHT22;64076;51.466;7.260;2023-11-19T10:55:32;23.10;40.40
75500;DHT22;64076;51.466;7.260;2023-11-19T10:58:02;23.10;40.40
75500;DHT22;64076;51.466;7.260;2023-11-19T11:00:43;23.10;40.40
75500;DHT22;64076;51.466;7.260;2023-11-19T11:03:31;23.10;40.40
75500;DHT22;64076;51.466;7.260;2023-11-19T11:06:03;23.10;40.40
75500;DHT22;64076;51.466;7.260;2023-11-19T11:08:30;23.10;40.40
75500;DHT22;64076;51.466;7.260;2023-11-19T11:10:56;23.10;40.40
75500;DHT22;64076;51.466;7.260;2023-11-19T11:13:24;23.10;40.40
75500;DHT22;64076;51.466;7.260;2023-11-19T11:15:51;23.10;40.40
75500;DHT22;64076;51.466;7.260;2023-11-19T11:18:17;23.00;40.40
75500;DHT22;64076;51.466;7.260;2023-11-19T11:20:45;23.00;40.40
75500;DHT22;64076;51.466;7.260;2023-11-19T11:23:36;23.10;40.40
75500;DHT22;64076;51.466;7.260;2023-11-19T11:29:02;23.00;40.40
75500;DHT22;64076;51.466;7.260;2023-11-19T11:37:17;23.10;40.40
75500;DHT22;64076;51.466;7.260;2023-11-19T11:39:46;23.00;40.40
75500;DHT22;64076;51.466;7.260;2023-11-19T11:45:03;23.00;40.40
75500;DHT22;64076;51.466;7.260;2023-11-19T11:50:28;23.10;40.40
75500;DHT22;64076;51.466;7.260;2023-11-19T11:55:26;23.10;40.40
75500;DHT22;64076;51.466;7.260;2023-11-19T11:57:53;23.10;40.30
75500;DHT22;64076;51.466;7.260;2023-11-19T12:00:30;23.10;40.30
75500;DHT22;64076;51.466;7.260;2023-11-19T12:02:57;23.10;40.30
75500;DHT22;64076;51.466;7.260;2023-11-19T12:05:24;23.10;40.30
75500;DHT22;64076;51.466;7.260;2023-11-19T12:07:59;23.10;40.30
75500;DHT22;64076;51.466;7.260;2023-11-19T12:10:28;23.10;40.30
75500;DHT22;64076;51.466;7.260;2023-11-19T12:12:59;23.10;40.30
75500;DHT22;64076;51.466;7.260;2023-11-19T12:15:25;23.10;40.30
75500;DHT22;64076;51.466;7.260;2023-11-19T12:17:54;23.10;40.30
75500;DHT22;64076;51.466;7.260;2023-11-19T12:20:24;23.10;40.30
75500;DHT22;64076;51.466;7.260;2023-11-19T12:22:50;23.10;40.30
75500;DHT22;64076;51.466;7.260;2023-11-19T12:25:17;23.10;40.30
75500;DHT22;64076;51.466;7.260;2023-11-19T12:30:12;23.10;40.30
75500;DHT22;64076;51.466;7.260;2023-11-19T12:32:44;23.10;40.20
75500;DHT22;64076;51.466;7.260;2023-11-19T12:35:12;23.10;40.30
75500;DHT22;64076;51.466;7.260;2023-11-19T12:40:21;23.10;40.30
75500;DHT22;64076;51.466;7.260;2023-11-19T12:42:47;23.10;40.30
75500;DHT22;64076;51.466;7.260;2023-11-19T12:45:13;23.10;40.20
75500;DHT22;64076;51.466;7.260;2023-11-19T12:47:40;23.10;40.20
75500;DHT22;64076;51.466;7.260;2023-11-19T12:50:07;23.10;40.20
75500;DHT22;64076;51.466;7.260;2023-11-19T12:52:34;23.10;40.20
75500;DHT22;64076;51.466;7.260;2023-11-19T12:55:00;23.10;40.20
75500;DHT22;64076;51.466;7.260;2023-11-19T12:57:41;23.10;40.10
75500;DHT22;64076;51.466;7.260;2023-11-19T13:00:17;23.10;40.10
75500;DHT22;64076;51.466;7.260;2023-11-19T13:05:25;23.10;40.20
75500;DHT22;64076;51.466;7.260;2023-11-19T13:08:07;23.10;40.20
75500;DHT22;64076;51.466;7.260;2023-11-19T13:13:15;23.10;40.20
75500;DHT22;64076;51.466;7.260;2023-11-19T13:15:41;23.10;40.20
75500;DHT22;64076;51.466;7.260;2023-11-19T13:18:06;23.10;40.10
75500;DHT22;64076;51.466;7.260;2023-11-19T13:20:32;23.10;40.20
75500;DHT22;64076;51.466;7.260;2023-11-19T13:23:00;23.10;40.20
75500;DHT22;64076;51.466;7.260;2023-11-19T13:25:27;23.10;40.10
75500;DHT22;64076;51.466;7.260;2023-11-19T13:27:53;23.10;40.20
75500;DHT22;64076;51.466;7.260;2023-11-19T13:30:19;23.10;40.20
75500;DHT22;64076;51.466;7.260;2023-11-19T13:32:45;23.10;40.20
75500;DHT22;64076;51.466;7.260;2023-11-19T13:35:12;23.10;40.20
75500;DHT22;64076;51.466;7.260;2023-11-19T13:37:38;23.10;40.20
75500;DHT22;64076;51.466;7.260;2023-11-19T13:40:04;23.10;40.20
75500;DHT22;64076;51.466;7.260;2023-11-19T13:42:30;23.10;40.20
75500;DHT22;64076;51.466;7.260;2023-11-19T13:44:56;23.10;40.20
75500;DHT22;64076;51.466;7.260;2023-11-19T13:47:24;23.10;40.20
75500;DHT22;64076;51.466;7.260;2023-11-19T13:49:50;23.10;40.20
75500;DHT22;64076;51.466;7.260;2023-11-19T13:52:15;23.10;40.20
75500;DHT22;64076;51.466;7.260;2023-11-19T13:54:41;23.10;40.20
75500;DHT22;64076;51.466;7.260;2023-11-19T13:57:06;23.10;40.20
75500;DHT22;64076;51.466;7.260;2023-11-19T13:59:32;23.10;40.20
75500;DHT22;64076;51.466;7.260;2023-11-19T14:02:01;23.10;40.20
75500;DHT22;64076;51.466;7.260;2023-11-19T14:04:26;23.10;40.20
75500;DHT22;64076;51.466;7.260;2023-11-19T14:06:52;23.10;40.20
75500;DHT22;64076;51.466;7.260;2023-11-19T14:09:17;23.10;40.20
75500;DHT22;64076;51.466;7.260;2023-11-19T14:11:46;23.10;40.20
75500;DHT22;64076;51.466;7.260;2023-11-19T14:14:12;23.10;40.20
75500;DHT22;64076;51.466;7.260;2023-11-19T14:16:37;23.10;40.20
75500;DHT22;64076;51.466;7.260;2023-11-19T14:19:03;23.10;40.20
75500;DHT22;64076;51.466;7.260;2023-11-19T14:21:28;23.10;40.20
75500;DHT22;64076;51.466;7.260;2023-11-19T14:23:54;23.10;40.20
75500;DHT22;64076;51.466;7.260;2023-11-19T14:26:19;23.10;40.20
75500;DHT22;64076;51.466;7.260;2023-11-19T14:28:45;23.10;40.20
75500;DHT22;64076;51.466;7.260;2023-11-19T14:31:11;23.10;40.20
75500;DHT22;64076;51.466;7.260;2023-11-19T14:33:36;23.10;40.20
75500;DHT22;64076;51.466;7.260;2023-11-19T14:36:03;23.10;40.30
75500;DHT22;64076;51.466;7.260;2023-11-19T14:38:30;23.10;40.20
75500;DHT22;64076;51.466;7.260;2023-11-19T14:40:56;23.10;40.20
75500;DHT22;64076;51.466;7.260;2023-11-19T14:43:21;23.10;40.20
75500;DHT22;64076;51.466;7.260;2023-11-19T14:45:47;23.10;40.20
75500;DHT22;64076;51.466;7.260;2023-11-19T14:48:13;23.10;40.20
75500;DHT22;64076;51.466;7.260;2023-11-19T14:50:38;23.10;40.20
75500;DHT22;64076;51.466;7.260;2023-11-19T14:53:04;23.10;40.20
75500;DHT22;64076;51.466;7.260;2023-11-19T14:55:29;23.10;40.20
75500;DHT22;64076;51.466;7.260;2023-11-19T14:57:55;23.10;40.20
75500;DHT22;64076;51.466;7.260;2023-11-19T15:00:22;23.10;40.20
75500;DHT22;64076;51.466;7.260;2023-11-19T15:02:47;23.10;40.20
75500;DHT22;64076;51.466;7.260;2023-11-19T15:05:13;23.10;40.30
75500;DHT22;64076;51.466;7.260;2023-11-19T15:07:39;23.10;40.30
75500;DHT22;64076;51.466;7.260;2023-11-19T15:10:06;23.00;40.30
75500;DHT22;64076;51.466;7.260;2023-11-19T15:12:37;23.10;40.40
75500;DHT22;64076;51.466;7.260;2023-11-19T15:15:06;23.00;40.30
75500;DHT22;64076;51.466;7.260;2023-11-19T15:17:31;23.00;40.40
75500;DHT22;64076;51.466;7.260;2023-11-19T15:19:57;23.00;40.30
75500;DHT22;64076;51.466;7.260;2023-11-19T15:22:22;23.00;40.40
75500;DHT22;64076;51.466;7.260;2023-11-19T15:24:48;23.00;40.40
75500;DHT22;64076;51.466;7.260;2023-11-19T15:27:13;23.00;40.40
75500;DHT22;64076;51.466;7.260;2023-11-19T15:29:39;23.00;40.50
75500;DHT22;64076;51.466;7.260;2023-11-19T15:32:05;23.00;40.50
75500;DHT22;64076;51.466;7.260;2023-11-19T15:34:32;23.00;40.50
75500;DHT22;64076;51.466;7.260;2023-11-19T15:36:58;23.00;40.50
75500;DHT22;64076;51.466;7.260;2023-11-19T15:39:25;23.00;40.50
75500;DHT22;64076;51.466;7.260;2023-11-19T15:41:52;23.00;40.50
75500;DHT22;64076;51.466;7.260;2023-11-19T15:44:18;23.00;40.40
75500;DHT22;64076;51.466;7.260;2023-11-19T15:46:43;23.00;40.50
75500;DHT22;64076;51.466;7.260;2023-11-19T15:49:09;23.00;40.50
75500;DHT22;64076;51.466;7.260;2023-11-19T15:51:34;23.00;40.50
75500;DHT22;64076;51.466;7.260;2023-11-19T15:54:00;23.00;40.50
75500;DHT22;64076;51.466;7.260;2023-11-19T15:56:25;23.00;40.50